»·PEaware :: N177MG KRNM-KAVQ

N177MG :: KRNM-KAVQ

FLIGHT INFORMATION

Flight Status: Arrived
Operator: Privately registered:
United States
More flights under this callsign
Pilot: Ryan L. (28399)
Aircraft: CESSNA 510 CITATION MUSTANG
(C510)
More flights by this aircraft type
Origin: KRNM Ramona
United States
Destination: KAVQ Marana Northwest Regl
United States
More flights between these airports :: More routes between these airports
Route: +ROBNN V208 JLI IPL J2 ALMON
File this flight plan on PilotEdge
Remarks:
Altitude:
(Current/Filed)
33,000ft
Speed:
(Current/Filed)
400kts
Departed: 29-Sep-20 11:34 AM
Arrived: 29-Sep-20 12:31 PM
Distance/Time
Traveled:
285nm/0:56
Distance/Time
To Go:
Arrived

Flight Plot

Page will automatically refresh every two minutes.

Flight plan parsing failed; only flown route is shown


Map Options




Map Legend


Flown Route
Filed Route
Departure Airport
Arrival Airport
Navaid (VOR, NDB)
Fix

Horizontal Profiles

Position Reports

Time Latitude Longitude Heading Altitude Ground
Speed
29-Sep-20 11:03 33.039291 -116.908000 275 1400ft 0kts
29-Sep-20 11:04 33.039291 -116.908000 275 1400ft 0kts
29-Sep-20 11:06 33.039291 -116.908000 275 1400ft 0kts
29-Sep-20 11:07 33.039291 -116.908000 275 1400ft 0kts
29-Sep-20 11:08 33.039291 -116.908000 275 1400ft 0kts
29-Sep-20 11:09 33.039291 -116.908000 275 1400ft 0kts
29-Sep-20 11:10 33.039291 -116.908000 275 1400ft 0kts
29-Sep-20 11:11 33.039291 -116.908000 275 1400ft 0kts
29-Sep-20 11:12 33.039291 -116.908000 275 1400ft 0kts
29-Sep-20 11:13 33.039292 -116.908015 275 1400ft 1kts
29-Sep-20 11:14 33.039296 -116.908060 275 1400ft 0kts
29-Sep-20 11:15 33.039296 -116.908060 275 1400ft 0kts
29-Sep-20 11:16 33.039296 -116.908060 275 1400ft 0kts
29-Sep-20 11:17 33.039296 -116.908060 275 1400ft 0kts
29-Sep-20 11:18 33.039296 -116.908060 275 1400ft 0kts
29-Sep-20 11:23 33.039291 -116.908000 275 1400ft 0kts
29-Sep-20 11:23 33.039291 -116.908000 275 1400ft 0kts
29-Sep-20 11:24 33.039291 -116.908000 275 1400ft 0kts
29-Sep-20 11:26 33.039291 -116.908000 275 1400ft 0kts
29-Sep-20 11:26 33.039291 -116.908000 275 1400ft 0kts
29-Sep-20 11:27 33.039291 -116.908000 275 1400ft 0kts
29-Sep-20 11:28 33.039291 -116.908000 275 1400ft 0kts
29-Sep-20 11:29 33.039291 -116.908000 275 1400ft 0kts
29-Sep-20 11:30 33.039291 -116.908000 275 1400ft 0kts
29-Sep-20 11:31 33.039293 -116.908029 275 1400ft 0kts
29-Sep-20 11:32 33.038710 -116.907628 125 1400ft 2kts
29-Sep-20 11:33 33.039736 -116.918940 280 1408ft 129kts
29-Sep-20 11:34 33.069884 -116.965418 319 4217ft 213kts
29-Sep-20 11:35 33.116710 -117.013340 318 7740ft 239kts
29-Sep-20 11:36 33.168894 -117.067654 318 10977ft 259kts
29-Sep-20 11:37 33.223045 -117.037871 86 12994ft 304kts
29-Sep-20 11:38 33.202404 -116.930604 102 13005ft 343kts
29-Sep-20 11:39 33.182273 -116.818788 102 13017ft 343kts
29-Sep-20 11:40 33.162031 -116.705629 102 13017ft 343kts
29-Sep-20 11:41 33.142203 -116.595291 102 13931ft 328kts
29-Sep-20 11:42 33.109602 -116.499525 113 16863ft 301kts
29-Sep-20 11:43 33.076927 -116.408155 114 19912ft 283kts
29-Sep-20 11:44 33.046521 -116.323604 115 22616ft 276kts
29-Sep-20 11:45 33.017235 -116.242561 115 24928ft 277kts
29-Sep-20 11:46 32.985019 -116.153816 115 27010ft 284kts
29-Sep-20 11:47 32.950272 -116.058502 115 29202ft 285kts
29-Sep-20 11:48 32.916558 -115.966192 114 31326ft 281kts
29-Sep-20 11:49 32.881748 -115.870917 113 33057ft 292kts
29-Sep-20 11:50 32.845999 -115.772772 113 33053ft 338kts
29-Sep-20 11:51 32.805987 -115.663606 113 33048ft 363kts
29-Sep-20 11:52 32.764772 -115.551688 113 33037ft 375kts
29-Sep-20 11:53 32.751137 -115.426984 89 33026ft 383kts
29-Sep-20 11:54 32.753982 -115.299594 90 33030ft 386kts
29-Sep-20 11:55 32.756822 -115.171930 90 33028ft 388kts
29-Sep-20 11:56 32.759708 -115.039441 90 33028ft 389kts
29-Sep-20 11:57 32.762533 -114.901984 90 33028ft 391kts
29-Sep-20 11:58 32.765308 -114.757858 90 33027ft 392kts
29-Sep-20 11:59 32.768029 -114.607459 90 33026ft 392kts
29-Sep-20 12:00 32.769899 -114.477638 90 33026ft 392kts
29-Sep-20 12:01 32.771619 -114.348034 91 33026ft 392kts
29-Sep-20 12:02 32.773217 -114.217093 91 33029ft 392kts
29-Sep-20 12:03 32.774681 -114.087340 91 33017ft 393kts
29-Sep-20 12:04 32.778832 -113.952593 82 31469ft 422kts
29-Sep-20 12:05 32.798841 -113.812983 82 29888ft 431kts
29-Sep-20 12:06 32.819247 -113.669391 82 28271ft 432kts
29-Sep-20 12:07 32.839955 -113.522602 82 26591ft 422kts
29-Sep-20 12:08 32.859844 -113.380380 82 25064ft 421kts
29-Sep-20 12:09 32.878880 -113.243294 83 24046ft 411kts
29-Sep-20 12:10 32.897573 -113.107905 83 24046ft 404kts
29-Sep-20 12:11 32.878615 -112.979054 110 23039ft 412kts
29-Sep-20 12:12 32.843728 -112.851177 104 21461ft 399kts
29-Sep-20 12:13 32.812165 -112.725960 104 19943ft 392kts
29-Sep-20 12:14 32.780372 -112.602489 104 18434ft 390kts
29-Sep-20 12:15 32.749050 -112.482534 104 16912ft 374kts
29-Sep-20 12:16 32.718240 -112.365164 105 15407ft 371kts
29-Sep-20 12:17 32.687376 -112.248415 105 15062ft 377kts
29-Sep-20 12:18 32.656145 -112.130918 105 15094ft 372kts
29-Sep-20 12:19 32.623863 -112.009761 105 15113ft 376kts
29-Sep-20 12:20 32.592484 -111.892497 105 15113ft 375kts
29-Sep-20 12:21 32.561788 -111.777921 106 13262ft 344kts
29-Sep-20 12:22 32.533968 -111.675047 106 11240ft 313kts
29-Sep-20 12:23 32.508599 -111.581503 105 8933ft 282kts
29-Sep-20 12:24 32.485595 -111.496518 106 6427ft 260kts
29-Sep-20 12:25 32.466217 -111.416570 84 3893ft 247kts
29-Sep-20 12:26 32.475305 -111.337167 81 3307ft 253kts
29-Sep-20 12:27 32.454670 -111.280313 119 3316ft 146kts
29-Sep-20 12:28 32.432106 -111.242832 136 2466ft 118kts
29-Sep-20 12:29 32.411160 -111.218656 135 2034ft 71kts
29-Sep-20 12:30 32.406978 -111.217129 220 2034ft 11kts
29-Sep-20 12:31 32.406504 -111.217041 137 2034ft 0kts
29-Sep-20 12:32 32.406504 -111.217041 137 2034ft 0kts
29-Sep-20 12:33 32.406504 -111.217041 137 2034ft 0kts
29-Sep-20 12:34 32.406504 -111.217041 137 2033ft 0kts
29-Sep-20 12:35 32.406504 -111.217041 137 2033ft 0kts
29-Sep-20 12:36 32.406504 -111.217041 137 2033ft 0kts
29-Sep-20 12:37 32.406504 -111.217041 137 2034ft 0kts
29-Sep-20 12:38 32.406504 -111.217041 137 2034ft 0kts
29-Sep-20 12:39 32.406504 -111.217041 137 2034ft 0kts
29-Sep-20 12:40 32.406504 -111.217041 137 2034ft 0kts
29-Sep-20 12:41 32.405388 -111.215552 136 2034ft 26kts
29-Sep-20 12:42 32.404236 -111.210799 342 2034ft 12kts
29-Sep-20 12:43 32.422604 -111.238661 292 2588ft 182kts
29-Sep-20 12:44 32.444536 -111.303931 295 5097ft 241kts

Navigation Log

Ident Type
Flight plan parsing failed, navigation log unavailable